CML6 weather

Six Mile Lake (Hungry Bay) Seaplane Base
Ontario, Canada

Public forecast

Using degrees Celsius for public forecast. Weather courtesy of forecast.io.

Closest aviation weather report (METAR) to Six Mile Lake (Hungry Bay) Seaplane Base

Closest report is Muskoka Airport, 18.1 nm (33.5 km) ENE. Retrieved 2019/10/15 19:00 UTC (56 minutes ago):

CYQA 151900Z AUTO 14007KT 120V230 9SM SCT150 SCT170 BKN190 11/02 A2998 RMK PRESFR SLP160

Closest aviation forecast (TAF) to Six Mile Lake (Hungry Bay) Seaplane Base

Closest forecast is Muskoka Airport, 18.1 nm (33.5 km) ENE. Retrieved 2019/10/15 20:00 UTC (0 seconds ago):

TAF CYQA 151941Z 1520/1602 14008KT P6SM SCT150 BKN190 RMK FCST BASED ON AUTO OBS NXT FCST WILL BE ISSUED AT 161145Z